createdAt,value
2019-02-12T00:02:17.539Z,101438.08
2019-02-12T00:04:46.484Z,101434.80
2019-02-12T00:07:15.414Z,101433.70
2019-02-12T00:09:44.350Z,101436.62
2019-02-12T00:12:13.288Z,101438.22
2019-02-12T00:14:42.264Z,101440.64
2019-02-12T00:17:11.190Z,101440.35
2019-02-12T00:19:40.467Z,101440.59
2019-02-12T00:22:09.426Z,101444.66
2019-02-12T00:24:38.396Z,101458.95
2019-02-12T00:27:07.394Z,101451.60
2019-02-12T00:29:36.266Z,101457.55
2019-02-12T00:32:05.202Z,101458.83
2019-02-12T00:34:34.067Z,101454.77
2019-02-12T00:37:03.005Z,101461.49
2019-02-12T00:39:31.961Z,101462.56
2019-02-12T00:42:00.952Z,101463.63
2019-02-12T00:44:29.935Z,101467.39
2019-02-12T00:46:58.869Z,101468.40
2019-02-12T00:49:27.826Z,101467.00
2019-02-12T00:51:56.772Z,101464.83
2019-02-12T00:54:25.704Z,101468.59
2019-02-12T00:56:54.646Z,101472.38
2019-02-12T00:59:23.633Z,101483.41
2019-02-12T01:01:52.631Z,101482.59
2019-02-12T01:04:21.564Z,101472.83
2019-02-12T01:06:50.540Z,101466.06
2019-02-12T01:09:19.471Z,101480.13
2019-02-12T01:11:48.445Z,101483.08
2019-02-12T01:14:17.362Z,101479.30
2019-02-12T01:16:46.346Z,101483.89
2019-02-12T01:19:15.196Z,101477.13
2019-02-12T01:21:44.169Z,101484.96
2019-02-12T01:24:13.111Z,101486.84
2019-02-12T01:26:42.056Z,101493.61
2019-02-12T01:29:10.984Z,101500.38
2019-02-12T01:31:39.945Z,101501.13
2019-02-12T01:34:08.798Z,101505.72
2019-02-12T01:36:37.761Z,101492.95
2019-02-12T01:39:27.372Z,101490.49
2019-02-12T01:41:56.334Z,101483.73
2019-02-12T01:44:27.676Z,101475.31
2019-02-12T01:46:55.958Z,101474.70
2019-02-12T01:49:24.893Z,101468.19
2019-02-12T01:51:53.867Z,101474.66
2019-02-12T01:54:22.807Z,101474.58
2019-02-12T01:56:51.675Z,101495.41
2019-02-12T01:59:20.625Z,101489.70
2019-02-12T02:01:49.491Z,101489.95
2019-02-12T02:04:18.455Z,101491.02
2019-02-12T02:06:47.390Z,101489.08
2019-02-12T02:09:16.289Z,101498.55
2019-02-12T02:11:45.216Z,101492.28
2019-02-12T02:14:14.189Z,101497.41
2019-02-12T02:16:43.141Z,101500.36
2019-02-12T02:19:12.132Z,101501.42
2019-02-12T02:21:44.103Z,101506.01
2019-02-12T02:24:11.658Z,101503.01
2019-02-12T02:26:40.624Z,101507.60
2019-02-12T02:29:09.577Z,101495.34
2019-02-12T02:31:38.512Z,101499.41
2019-02-12T02:34:07.457Z,101507.76
2019-02-12T02:36:36.385Z,101510.47
2019-02-12T02:39:06.058Z,101518.00
2019-02-12T02:41:34.999Z,101510.70
2019-02-12T02:44:03.958Z,101517.77
2019-02-12T02:46:32.895Z,101520.17
2019-02-12T02:49:01.894Z,101516.41
2019-02-12T02:51:30.819Z,101516.12
2019-02-12T02:53:59.759Z,101529.64
2019-02-12T02:56:28.682Z,101529.94
2019-02-12T02:58:57.594Z,101524.23
2019-02-12T03:01:26.529Z,101531.28
2019-02-12T03:03:55.473Z,101529.11
2019-02-12T03:06:24.325Z,101535.88
2019-02-12T03:08:53.264Z,101528.30
2019-02-12T03:11:22.127Z,101523.41
2019-02-12T03:13:51.077Z,101520.38
2019-02-12T03:16:20.039Z,101519.56
2019-02-12T03:18:48.970Z,101521.16
2019-02-12T03:21:17.899Z,101528.98
2019-02-12T03:23:47.178Z,101523.28
2019-02-12T03:26:16.105Z,101529.42
2019-02-12T03:28:45.040Z,101531.63
2019-02-12T03:31:13.984Z,101520.73
2019-02-12T03:33:42.908Z,101533.96
2019-02-12T03:36:11.846Z,101538.55
2019-02-12T03:38:40.784Z,101538.26
2019-02-12T03:41:09.706Z,101539.53
2019-02-12T03:43:38.661Z,101537.88
2019-02-12T03:46:07.597Z,101537.59
2019-02-12T03:48:36.533Z,101541.36
2019-02-12T03:51:05.457Z,101545.41
2019-02-12T03:53:34.529Z,101535.66
2019-02-12T03:56:03.446Z,101533.69
2019-02-12T03:58:32.403Z,101549.33
2019-02-12T04:01:01.977Z,101559.09
2019-02-12T04:03:31.261Z,101571.49
2019-02-12T04:06:00.215Z,101566.61
2019-02-12T04:08:29.210Z,101570.38
2019-02-12T04:10:58.074Z,101573.61
2019-02-12T04:13:27.004Z,101585.55
2019-02-12T04:15:55.945Z,101582.02
2019-02-12T04:18:24.895Z,101590.95
2019-02-12T04:20:53.754Z,101598.54
2019-02-12T04:23:26.225Z,101595.54
2019-02-12T04:25:55.085Z,101589.90
2019-02-12T04:28:24.022Z,101596.66
2019-02-12T04:30:52.932Z,101589.90
2019-02-12T04:33:21.854Z,101590.72
2019-02-12T04:35:50.805Z,101593.42
2019-02-12T04:38:19.732Z,101592.60
2019-02-12T04:40:48.615Z,101589.08
2019-02-12T04:43:17.553Z,101585.55
2019-02-12T04:45:46.507Z,101584.72
2019-02-12T04:48:15.447Z,101589.31
2019-02-12T04:50:44.435Z,101591.39
2019-02-12T04:53:13.369Z,101592.45
2019-02-12T04:55:42.289Z,101587.87
2019-02-12T04:58:11.314Z,101586.76
2019-02-12T05:00:40.239Z,101603.52
2019-02-12T05:03:09.200Z,101602.39
2019-02-12T05:05:38.123Z,101604.80
2019-02-12T05:08:07.083Z,101609.92
2019-02-12T05:10:38.703Z,101616.35
2019-02-12T05:13:07.527Z,101614.70
2019-02-12T05:15:36.471Z,101619.00
2019-02-12T05:18:05.341Z,101618.47
2019-02-12T05:20:34.265Z,101614.65
2019-02-12T05:23:03.197Z,101616.53
2019-02-12T05:25:32.173Z,101614.36
2019-02-12T05:28:01.102Z,101612.18
2019-02-12T05:30:30.021Z,101616.23
2019-02-12T05:32:58.935Z,101611.36
2019-02-12T05:35:27.858Z,101610.30
2019-02-12T05:37:56.813Z,101617.88
2019-02-12T05:40:25.686Z,101622.77
2019-02-12T05:42:54.547Z,101623.87
2019-02-12T05:45:23.489Z,101624.70
2019-02-12T05:47:52.482Z,101634.70
2019-02-12T05:50:21.326Z,101632.28
2019-02-12T05:52:54.258Z,101637.63
2019-02-12T05:55:20.965Z,101646.86
2019-02-12T05:57:49.811Z,101641.39
2019-02-12T06:00:19.830Z,101648.45
2019-02-12T06:02:48.669Z,101649.21
2019-02-12T06:05:27.729Z,101646.51
2019-02-12T06:07:56.695Z,101647.53
2019-02-12T06:10:25.648Z,101648.06
2019-02-12T06:12:54.646Z,101648.30
2019-02-12T06:15:23.569Z,101647.47
2019-02-12T06:17:52.499Z,101640.95
2019-02-12T06:20:21.446Z,101643.86
2019-02-12T06:22:50.359Z,101646.55
2019-02-12T06:25:19.320Z,101673.80
2019-02-12T06:27:48.251Z,101670.06
2019-02-12T06:30:17.185Z,101676.73
2019-02-12T06:32:46.122Z,101681.84
2019-02-12T06:35:15.036Z,101684.25
2019-02-12T06:37:44.021Z,101685.30
2019-02-12T06:40:12.941Z,101673.64
2019-02-12T06:42:41.873Z,101677.48
2019-02-12T06:45:10.750Z,101677.78
2019-02-12T06:47:39.792Z,101681.41
2019-02-12T06:50:09.670Z,101689.91
2019-02-12T06:52:38.551Z,101680.80
2019-02-12T06:55:08.281Z,101682.25
2019-02-12T06:57:37.268Z,101683.42
2019-02-12T07:00:06.879Z,101684.05
2019-02-12T07:03:15.963Z,101690.05
2019-02-12T07:05:48.990Z,101695.02
2019-02-12T07:08:39.381Z,101695.38
2019-02-12T07:12:07.630Z,101695.67
2019-02-12T07:15:21.829Z,101704.93
2019-02-12T07:18:29.127Z,101701.99
2019-02-12T07:21:34.999Z,101704.76
2019-02-12T07:24:37.881Z,101713.98
2019-02-12T07:27:48.223Z,101720.55
2019-02-12T07:30:57.300Z,101728.43
2019-02-12T07:33:54.424Z,101725.25
2019-02-12T07:37:00.991Z,101735.02
2019-02-12T07:40:35.140Z,101741.58
2019-02-12T07:43:36.717Z,101741.34
2019-02-12T07:46:47.331Z,101748.23
2019-02-12T07:50:15.427Z,101752.42
2019-02-12T07:53:30.906Z,101761.23
2019-02-12T07:56:27.228Z,101763.58
2019-02-12T07:59:35.842Z,101764.49
2019-02-12T08:02:25.625Z,101774.02
2019-02-12T08:05:50.780Z,101774.39
2019-02-12T08:09:16.325Z,101779.66
2019-02-12T08:12:16.158Z,101780.84
2019-02-12T08:15:10.031Z,101793.16
2019-02-12T08:18:17.079Z,101793.21
2019-02-12T08:21:11.321Z,101791.24
2019-02-12T08:24:24.766Z,101802.73
2019-02-12T08:27:18.980Z,101804.41
2019-02-12T08:30:19.603Z,101816.20
2019-02-12T08:33:31.145Z,101820.39
2019-02-12T08:36:23.591Z,101820.72
2019-02-12T08:39:16.387Z,101824.59
2019-02-12T08:42:16.583Z,101826.72
2019-02-12T08:45:20.492Z,101827.19
2019-02-12T08:48:27.364Z,101839.12
2019-02-12T08:51:25.116Z,101836.22
2019-02-12T08:54:30.801Z,101839.81
2019-02-12T08:57:40.926Z,101837.52
2019-02-12T09:00:50.507Z,101836.23
2019-02-12T09:04:02.701Z,101836.95
2019-02-12T09:07:20.527Z,101837.55
2019-02-12T09:10:25.151Z,101847.55
2019-02-12T09:13:09.400Z,101851.30
2019-02-12T09:16:14.288Z,101860.86
2019-02-12T09:18:56.232Z,101859.21
2019-02-12T09:22:00.398Z,101869.12
2019-02-12T09:25:05.281Z,101861.74
2019-02-12T09:27:51.171Z,101856.34
2019-02-12T09:31:03.819Z,101856.34
2019-02-12T09:34:14.227Z,101862.80
2019-02-12T09:37:16.719Z,101861.69
2019-02-12T09:40:19.451Z,101863.18
2019-02-12T09:43:39.057Z,101874.53
2019-02-12T09:46:46.458Z,101881.63
2019-02-12T09:50:03.990Z,101879.28
2019-02-12T09:53:23.489Z,101878.88
2019-02-12T09:56:13.779Z,101885.34
2019-02-12T09:58:54.777Z,101888.88
2019-02-12T10:01:52.850Z,101885.73
2019-02-12T10:04:43.035Z,101888.88
2019-02-12T10:07:36.049Z,101889.45
2019-02-12T10:10:34.451Z,101896.38
2019-02-12T10:13:44.908Z,101884.50
2019-02-12T10:16:36.040Z,101883.67
2019-02-12T10:19:47.220Z,101896.14
2019-02-12T10:22:59.886Z,101897.27
2019-02-12T10:25:45.310Z,101898.85
2019-02-12T10:28:59.168Z,101910.73
2019-02-12T10:31:42.603Z,101904.16
2019-02-12T10:34:11.925Z,101909.73
2019-02-12T10:36:40.941Z,101910.16
2019-02-12T10:39:11.550Z,101911.45
2019-02-12T10:41:40.468Z,101911.37
2019-02-12T10:44:09.463Z,101906.92
2019-02-12T10:46:38.425Z,101909.09
2019-02-12T10:49:07.379Z,101905.97
2019-02-12T10:51:36.317Z,101905.28
2019-02-12T10:54:05.269Z,101905.97
2019-02-12T10:56:34.253Z,101913.96
2019-02-12T10:59:03.190Z,101923.66
2019-02-12T11:01:32.136Z,101919.08
2019-02-12T11:04:01.110Z,101907.77
2019-02-12T11:06:30.059Z,101909.63
2019-02-12T11:08:58.919Z,101904.25
2019-02-12T11:11:27.882Z,101903.84
2019-02-12T11:13:56.838Z,101907.13
2019-02-12T11:16:25.802Z,101908.98
2019-02-12T11:18:54.767Z,101911.03
2019-02-12T11:21:23.732Z,101913.73
2019-02-12T11:23:52.692Z,101913.58
2019-02-12T11:26:21.646Z,101912.60
2019-02-12T11:28:50.568Z,101918.19
2019-02-12T11:31:19.552Z,101911.06
2019-02-12T11:33:48.477Z,101918.59
2019-02-12T11:36:17.420Z,101915.44
2019-02-12T11:38:46.388Z,101913.86
2019-02-12T11:41:15.325Z,101911.22
2019-02-12T11:43:44.251Z,101915.95
2019-02-12T11:46:13.195Z,101917.47
2019-02-12T11:48:42.135Z,101920.00
2019-02-12T11:51:11.063Z,101923.97
2019-02-12T11:53:40.179Z,101919.77
2019-02-12T11:56:09.123Z,101925.31
2019-02-12T11:58:38.077Z,101917.86
2019-02-12T12:01:10.168Z,101919.44
2019-02-12T12:03:39.110Z,101914.98
2019-02-12T12:06:08.059Z,101918.45
2019-02-12T12:08:37.018Z,101915.97
2019-02-12T12:11:06.017Z,101917.32
2019-02-12T12:13:34.961Z,101912.97
2019-02-12T12:16:03.921Z,101914.78
2019-02-12T12:18:33.048Z,101919.31
2019-02-12T12:21:01.990Z,101920.30
2019-02-12T12:23:30.943Z,101914.83
2019-02-12T12:25:59.987Z,101917.99
2019-02-12T12:28:28.963Z,101913.00
2019-02-12T12:30:58.146Z,101913.17
2019-02-12T12:33:27.102Z,101920.55
2019-02-12T12:35:56.039Z,101921.22
2019-02-12T12:38:25.005Z,101918.90
2019-02-12T12:40:54.001Z,101920.02
2019-02-12T12:43:22.988Z,101925.74
2019-02-12T12:45:51.960Z,101919.64
2019-02-12T12:48:20.861Z,101912.25
2019-02-12T12:50:49.833Z,101911.19
2019-02-12T12:53:18.779Z,101906.14
2019-02-12T12:55:47.735Z,101906.02
2019-02-12T12:58:16.697Z,101906.17
2019-02-12T13:00:45.658Z,101906.78
2019-02-12T13:03:14.624Z,101916.31
2019-02-12T13:05:43.663Z,101914.72
2019-02-12T13:08:12.606Z,101912.88
2019-02-12T13:10:41.549Z,101909.42
2019-02-12T13:13:10.548Z,101907.39
2019-02-12T13:15:39.505Z,101909.93
2019-02-12T13:18:08.497Z,101910.09
2019-02-12T13:20:37.498Z,101912.94
2019-02-12T13:23:06.470Z,101910.99
2019-02-12T13:25:35.452Z,101912.58
2019-02-12T13:28:04.456Z,101908.66
2019-02-12T13:30:33.406Z,101912.12
2019-02-12T13:33:02.447Z,101918.78
2019-02-12T13:35:31.447Z,101921.42
2019-02-12T13:38:00.375Z,101929.54
2019-02-12T13:40:29.338Z,101933.30
2019-02-12T13:42:58.306Z,101933.30
2019-02-12T13:45:27.255Z,101926.44
2019-02-12T13:47:56.188Z,101931.02
2019-02-12T13:50:25.163Z,101941.55
2019-02-12T13:52:54.030Z,101940.19
2019-02-12T13:55:22.996Z,101938.84
2019-02-12T13:57:51.940Z,101941.84
2019-02-12T14:00:20.924Z,101947.26
2019-02-12T14:02:49.899Z,101955.90
2019-02-12T14:05:18.936Z,101958.84
2019-02-12T14:07:47.931Z,101955.66
2019-02-12T14:10:16.854Z,101964.31
2019-02-12T14:12:45.753Z,101972.20
2019-02-12T14:15:14.759Z,101963.89
2019-02-12T14:17:43.775Z,101968.77
2019-02-12T14:20:13.612Z,101974.19
2019-02-12T14:22:42.565Z,101975.84
2019-02-12T14:25:11.826Z,101975.31
2019-02-12T14:27:40.768Z,101966.96
2019-02-12T14:30:11.927Z,101968.94
2019-02-12T14:32:40.917Z,101975.55
2019-02-12T14:35:10.474Z,101965.02
2019-02-12T14:37:39.450Z,101964.36
2019-02-12T14:40:09.707Z,101972.87
2019-02-12T14:42:38.699Z,101976.88
2019-02-12T14:45:09.351Z,101974.09
2019-02-12T14:47:38.342Z,101977.70
2019-02-12T14:50:08.511Z,101965.91
2019-02-12T14:52:37.464Z,101964.09
2019-02-12T14:55:06.436Z,101954.38
2019-02-12T14:57:35.458Z,101946.91
2019-02-12T15:00:04.478Z,101946.16
2019-02-12T15:02:33.468Z,101948.86
2019-02-12T15:05:02.441Z,101952.63
2019-02-12T15:07:31.400Z,101946.91
2019-02-12T15:10:00.391Z,101953.08
2019-02-12T15:12:29.336Z,101954.34
2019-02-12T15:14:58.322Z,101954.58
2019-02-12T15:17:27.374Z,101948.97
2019-02-12T15:19:56.308Z,101947.69
2019-02-12T15:22:25.336Z,101944.62
2019-02-12T15:24:54.402Z,101950.17
2019-02-12T15:27:23.371Z,101939.27
2019-02-12T15:29:52.409Z,101940.27
2019-02-12T15:32:21.318Z,101933.42
2019-02-12T15:34:50.319Z,101940.73
2019-02-12T15:37:19.440Z,101940.95
2019-02-12T15:39:48.484Z,101946.06
2019-02-12T15:42:17.495Z,101942.98
2019-02-12T15:44:46.461Z,101953.44
2019-02-12T15:47:15.495Z,101953.30
2019-02-12T15:49:44.452Z,101956.00
2019-02-12T15:52:13.443Z,101958.63
2019-02-12T15:54:42.621Z,101959.09
2019-02-12T15:57:11.657Z,101961.80
2019-02-12T15:59:40.670Z,101966.25
2019-02-12T16:02:11.594Z,101969.47
2019-02-12T16:04:40.554Z,101969.97
2019-02-12T16:07:09.650Z,101968.15
2019-02-12T16:09:38.664Z,101974.84
2019-02-12T16:12:07.631Z,101968.48
2019-02-12T16:14:36.650Z,101965.95
2019-02-12T16:17:05.672Z,101969.81
2019-02-12T16:19:34.636Z,101969.76
2019-02-12T16:22:03.654Z,101979.44
2019-02-12T16:24:32.651Z,101970.89
2019-02-12T16:27:01.645Z,101969.61
2019-02-12T16:29:30.701Z,101977.52
2019-02-12T16:31:59.641Z,101986.19
2019-02-12T16:34:28.746Z,101986.94
2019-02-12T16:36:57.751Z,101988.00
2019-02-12T16:39:26.818Z,101986.36
2019-02-12T16:41:55.792Z,101987.42
2019-02-12T16:44:24.905Z,101989.55
2019-02-12T16:46:54.041Z,101997.61
2019-02-12T16:49:23.033Z,102001.09
2019-02-12T16:51:52.059Z,102003.23
2019-02-12T16:54:21.517Z,102007.75
2019-02-12T16:56:50.701Z,102002.80
2019-02-12T16:59:20.077Z,101998.59
2019-02-12T17:01:49.439Z,102001.85
2019-02-12T17:04:18.818Z,102003.02
2019-02-12T17:06:48.061Z,102001.75
2019-02-12T17:09:17.812Z,102006.30
2019-02-12T17:11:46.905Z,102015.79
2019-02-12T17:14:15.907Z,102028.28
2019-02-12T17:16:44.966Z,102027.76
2019-02-12T17:19:14.237Z,102027.23
2019-02-12T17:21:43.297Z,102031.88
2019-02-12T17:24:12.420Z,102033.53
2019-02-12T17:26:41.518Z,102035.42
2019-02-12T17:29:10.526Z,102028.11
2019-02-12T17:31:39.783Z,102033.86
2019-02-12T17:34:08.813Z,102040.11
2019-02-12T17:36:39.151Z,102034.15
2019-02-12T17:39:08.253Z,102030.81
2019-02-12T17:41:37.556Z,102035.66
2019-02-12T17:44:07.189Z,102034.98
2019-02-12T17:46:36.356Z,102035.98
2019-02-12T17:49:05.370Z,102033.86
2019-02-12T17:51:34.480Z,102035.66
2019-02-12T17:54:04.516Z,102036.56
2019-02-12T17:56:33.687Z,102037.83
2019-02-12T17:59:03.049Z,102039.38
2019-02-12T18:01:32.422Z,102041.23
2019-02-12T18:04:01.835Z,102049.56
2019-02-12T18:06:31.167Z,102040.20
2019-02-12T18:09:00.791Z,102049.30
2019-02-12T18:11:29.875Z,102046.83
2019-02-12T18:13:59.937Z,102049.27
2019-02-12T18:16:29.060Z,102050.05
2019-02-12T18:18:58.443Z,102056.29
2019-02-12T18:21:27.652Z,102053.81
2019-02-12T18:23:57.011Z,102056.91
2019-02-12T18:26:33.100Z,102057.05
2019-02-12T18:28:59.784Z,102059.77
2019-02-12T18:31:29.043Z,102053.76
2019-02-12T18:33:58.522Z,102055.11
2019-02-12T18:36:28.125Z,102051.25
2019-02-12T18:38:57.797Z,102052.84
2019-02-12T18:41:27.385Z,102049.51
2019-02-12T18:44:00.380Z,102047.03
2019-02-12T18:46:29.235Z,102043.50
2019-02-12T18:48:59.899Z,102040.48
2019-02-12T18:51:31.436Z,102034.01
2019-02-12T18:54:00.998Z,102033.71
2019-02-12T18:56:30.841Z,102034.23
2019-02-12T18:59:00.386Z,102028.23
2019-02-12T19:01:29.809Z,102022.19
2019-02-12T19:04:00.557Z,102025.13
2019-02-12T19:06:31.717Z,102031.32
2019-02-12T19:09:01.113Z,102026.92
2019-02-12T19:11:31.521Z,102027.40
2019-02-12T19:14:01.379Z,102019.06
2019-02-12T19:16:31.361Z,102029.07
2019-02-12T19:19:01.203Z,102030.13
2019-02-12T19:21:31.798Z,102022.83
2019-02-12T19:24:01.198Z,102027.78
2019-02-12T19:26:30.589Z,102027.88
2019-02-12T19:28:59.836Z,102032.29
2019-02-12T19:31:29.224Z,102024.22
2019-02-12T19:33:59.017Z,102027.84
2019-02-12T19:36:28.985Z,102034.48
2019-02-12T19:38:59.286Z,102038.37
2019-02-12T19:41:29.951Z,102037.19
2019-02-12T19:43:59.335Z,102038.40
2019-02-12T19:46:28.859Z,102036.86
2019-02-12T19:48:58.710Z,102039.67
2019-02-12T19:51:27.910Z,102048.16
2019-02-12T19:53:57.898Z,102047.71
2019-02-12T19:56:27.095Z,102039.63
2019-02-12T19:58:56.983Z,102044.52
2019-02-12T20:01:26.527Z,102047.53
2019-02-12T20:03:55.868Z,102042.40
2019-02-12T20:06:25.889Z,102042.40
2019-02-12T20:08:55.293Z,102052.22
2019-02-12T20:11:25.007Z,102055.22
2019-02-12T20:13:54.319Z,102054.22
2019-02-12T20:16:23.466Z,102059.49
2019-02-12T20:18:53.294Z,102060.46
2019-02-12T20:21:23.218Z,102053.28
2019-02-12T20:23:53.196Z,102062.39
2019-02-12T20:26:23.043Z,102075.03
2019-02-12T20:28:55.818Z,102064.28
2019-02-12T20:31:26.000Z,102061.70
2019-02-12T20:33:57.040Z,102064.02
2019-02-12T20:36:26.689Z,102056.26
2019-02-12T20:38:57.388Z,102059.61
2019-02-12T20:41:26.826Z,102058.62
2019-02-12T20:43:56.526Z,102057.96
2019-02-12T20:46:25.647Z,102057.19
2019-02-12T20:48:55.236Z,102051.52
2019-02-12T20:51:24.417Z,102051.27
2019-02-12T20:53:53.913Z,102057.53
2019-02-12T20:56:23.124Z,102062.42
2019-02-12T20:58:52.360Z,102066.83
2019-02-12T21:01:22.154Z,102057.31
2019-02-12T21:03:51.953Z,102056.78
2019-02-12T21:06:21.230Z,102051.36
2019-02-12T21:08:50.279Z,102053.53
2019-02-12T21:11:19.629Z,102051.36
2019-02-12T21:13:48.718Z,102046.98
2019-02-12T21:16:17.964Z,102040.20
2019-02-12T21:18:47.245Z,102040.95
2019-02-12T21:21:16.232Z,102048.80
2019-02-12T21:23:45.322Z,102043.85
2019-02-12T21:26:14.294Z,102050.31
2019-02-12T21:28:43.249Z,102046.20
2019-02-12T21:31:13.152Z,102051.84
2019-02-12T21:33:42.540Z,102059.39
2019-02-12T21:36:11.547Z,102057.19
2019-02-12T21:38:40.549Z,102059.84
2019-02-12T21:41:11.347Z,102067.17
2019-02-12T21:43:40.589Z,102063.05
2019-02-12T21:46:09.898Z,102070.57
2019-02-12T21:48:38.890Z,102072.41
2019-02-12T21:51:07.883Z,102078.08
2019-02-12T21:53:37.062Z,102075.28
2019-02-12T21:56:06.129Z,102075.77
2019-02-12T21:58:36.720Z,102080.57
2019-02-12T22:01:05.686Z,102084.06
2019-02-12T22:03:34.646Z,102080.97
2019-02-12T22:06:03.660Z,102078.48
2019-02-12T22:08:32.653Z,102070.00
2019-02-12T22:11:01.699Z,102078.59
2019-02-12T22:13:30.669Z,102073.10
2019-02-12T22:15:59.636Z,102072.19
2019-02-12T22:18:28.589Z,102074.32
2019-02-12T22:20:57.519Z,102081.88
2019-02-12T22:23:26.504Z,102079.07
2019-02-12T22:25:55.590Z,102079.02
2019-02-12T22:28:24.576Z,102081.14
2019-02-12T22:30:53.522Z,102086.48
2019-02-12T22:33:22.495Z,102087.48
2019-02-12T22:35:51.357Z,102090.73
2019-02-12T22:38:20.342Z,102082.20
2019-02-12T22:40:49.330Z,102080.26
2019-02-12T22:43:18.291Z,102080.46
2019-02-12T22:45:47.283Z,102088.01
2019-02-12T22:48:16.257Z,102098.27
2019-02-12T22:50:45.231Z,102098.70
2019-02-12T22:53:14.182Z,102103.01
2019-02-12T22:55:43.150Z,102104.31
2019-02-12T22:58:12.131Z,102105.04
2019-02-12T23:00:58.623Z,102104.45
2019-02-12T23:03:27.598Z,102105.71
2019-02-12T23:05:56.537Z,102107.80
2019-02-12T23:08:25.531Z,102110.75
2019-02-12T23:10:54.471Z,102116.64
2019-02-12T23:13:23.441Z,102115.48
2019-02-12T23:15:52.435Z,102110.82
2019-02-12T23:18:21.349Z,102124.61
2019-02-12T23:20:50.237Z,102125.05
2019-02-12T23:23:19.184Z,102124.45
2019-02-12T23:25:48.171Z,102117.38
2019-02-12T23:28:17.182Z,102111.89
2019-02-12T23:30:46.116Z,102120.75
2019-02-12T23:33:15.062Z,102112.86
2019-02-12T23:35:44.016Z,102120.69
2019-02-12T23:38:13.018Z,102120.59
2019-02-12T23:40:41.910Z,102121.36
2019-02-12T23:43:10.915Z,102114.28
2019-02-12T23:45:39.699Z,102119.94
2019-02-12T23:48:08.658Z,102110.36
2019-02-12T23:50:37.607Z,102110.59
2019-02-12T23:53:06.589Z,102100.51
2019-02-12T23:55:35.586Z,102097.50
2019-02-12T23:58:06.275Z,102093.64
